createdAt,value
2018-03-14T00:01:27.607Z,71.1
2018-03-14T00:11:27.872Z,68.6
2018-03-14T00:21:32.489Z,71.2
2018-03-14T00:31:29.666Z,74.1
2018-03-14T00:41:28.353Z,74.4
2018-03-14T00:51:28.606Z,75.8
2018-03-14T01:01:28.597Z,76.1
2018-03-14T01:11:32.977Z,82.1
2018-03-14T01:21:27.274Z,84.1
2018-03-14T01:31:27.094Z,86.4
2018-03-14T01:41:27.610Z,89.3
2018-03-14T01:51:29.870Z,71.9
2018-03-14T02:01:29.293Z,80.5
2018-03-14T02:11:27.652Z,78.4
2018-03-14T02:21:27.119Z,75.6
2018-03-14T02:31:27.172Z,76.2
2018-03-14T02:41:26.999Z,79.5
2018-03-14T02:51:29.076Z,75.0
2018-03-14T03:01:29.592Z,79.4
2018-03-14T03:11:28.119Z,84.8
2018-03-14T03:21:26.862Z,82.7
2018-03-14T03:31:30.584Z,82.8
2018-03-14T03:41:28.639Z,89.5
2018-03-14T03:51:26.671Z,86.3
2018-03-14T04:01:29.617Z,84.2
2018-03-14T04:11:27.401Z,84.3
2018-03-14T04:21:29.832Z,90.7
2018-03-14T04:31:26.850Z,112.2
2018-03-14T04:41:28.837Z,87.0
2018-03-14T04:51:32.532Z,86.6
2018-03-14T05:01:27.562Z,97.3
2018-03-14T05:11:28.524Z,81.2
2018-03-14T05:21:32.130Z,93.1
2018-03-14T05:31:28.329Z,78.1
2018-03-14T05:41:33.481Z,75.2
2018-03-14T05:51:35.038Z,72.6
2018-03-14T06:01:32.116Z,62.1
2018-03-14T06:11:32.152Z,66.6
2018-03-14T06:21:32.681Z,63.4
2018-03-14T06:31:29.577Z,62.1
2018-03-14T06:41:27.389Z,67.2
2018-03-14T06:51:28.050Z,67.9
2018-03-14T07:01:28.554Z,67.1
2018-03-14T07:11:27.349Z,62.9
2018-03-14T07:21:27.263Z,60.3
2018-03-14T07:31:29.678Z,41.6
2018-03-14T07:41:27.777Z,32.2
2018-03-14T07:51:27.456Z,34.2
2018-03-14T08:01:27.949Z,36.4
2018-03-14T08:11:27.644Z,30.0
2018-03-14T08:21:26.436Z,42.0
2018-03-14T08:31:27.184Z,28.3
2018-03-14T08:41:27.316Z,31.2
2018-03-14T08:51:27.158Z,28.9
2018-03-14T09:01:27.383Z,19.5
2018-03-14T09:11:28.615Z,16.8
2018-03-14T09:21:28.306Z,18.9
2018-03-14T09:31:27.122Z,20.8
2018-03-14T09:41:27.221Z,23.2
2018-03-14T09:51:31.914Z,28.3
2018-03-14T10:01:26.946Z,29.2
2018-03-14T10:11:27.014Z,30.7
2018-03-14T10:21:27.678Z,30.2
2018-03-14T10:31:26.326Z,28.2
2018-03-14T10:41:28.726Z,30.0
2018-03-14T10:51:27.151Z,33.9
2018-03-14T11:01:26.925Z,38.9
2018-03-14T11:11:28.620Z,45.6
2018-03-14T11:21:28.282Z,37.3
2018-03-14T11:31:28.516Z,44.9
2018-03-14T11:41:27.297Z,53.1
2018-03-14T11:51:27.448Z,49.9
2018-03-14T12:01:29.550Z,52.2
2018-03-14T12:11:27.078Z,41.4
2018-03-14T12:21:27.211Z,44.6
2018-03-14T12:31:32.983Z,43.9
2018-03-14T12:41:32.793Z,17.6
2018-03-14T12:51:33.396Z,18.2
2018-03-14T13:01:27.110Z,25.1
2018-03-14T13:11:35.308Z,15.0
2018-03-14T13:21:27.419Z,17.7
2018-03-14T13:31:28.379Z,16.8
2018-03-14T13:41:27.164Z,21.6
2018-03-14T13:51:30.369Z,21.4
2018-03-14T14:01:27.956Z,19.9
2018-03-14T14:11:27.282Z,19.6
2018-03-14T14:21:29.887Z,22.8
2018-03-14T14:31:28.336Z,23.0
2018-03-14T14:41:27.267Z,29.1
2018-03-14T14:51:27.593Z,29.2
2018-03-14T15:01:30.025Z,44.8
2018-03-14T15:11:27.042Z,40.9
2018-03-14T15:21:27.277Z,41.8
2018-03-14T15:31:27.977Z,33.6
2018-03-14T15:41:27.614Z,27.2
2018-03-14T15:51:27.121Z,22.0
2018-03-14T16:01:27.746Z,28.4
2018-03-14T16:11:28.928Z,33.3
2018-03-14T16:21:27.627Z,40.6
2018-03-14T16:31:27.649Z,35.9
2018-03-14T16:41:26.307Z,48.1
2018-03-14T16:51:27.854Z,44.0
2018-03-14T17:01:26.690Z,51.2
2018-03-14T17:11:26.390Z,53.9
2018-03-14T17:21:27.524Z,51.0
2018-03-14T17:31:28.393Z,49.0
2018-03-14T17:41:27.213Z,42.4
2018-03-14T17:51:27.497Z,47.0
2018-03-14T18:01:27.200Z,50.1
2018-03-14T18:11:27.338Z,47.0
2018-03-14T18:21:26.319Z,52.6
2018-03-14T18:31:27.111Z,57.6
2018-03-14T18:41:27.223Z,59.0
2018-03-14T18:51:27.391Z,56.0
2018-03-14T19:01:27.178Z,63.7
2018-03-14T19:11:30.234Z,70.1
2018-03-14T19:21:27.447Z,75.0
2018-03-14T19:31:28.294Z,69.2
2018-03-14T19:41:28.405Z,59.1
2018-03-14T19:51:27.161Z,58.6
2018-03-14T20:01:27.625Z,62.2
2018-03-14T20:11:27.502Z,59.9
2018-03-14T20:21:27.710Z,53.9
2018-03-14T20:31:27.186Z,45.2
2018-03-14T20:41:27.268Z,52.8
2018-03-14T20:51:28.017Z,56.5
2018-03-14T21:01:27.113Z,48.5
2018-03-14T21:11:26.994Z,45.8
2018-03-14T21:21:27.617Z,44.8
2018-03-14T21:31:27.438Z,47.9
2018-03-14T21:41:27.291Z,51.6
2018-03-14T21:51:27.561Z,47.0
2018-03-14T22:01:27.611Z,61.6
2018-03-14T22:11:27.927Z,75.1
2018-03-14T22:21:27.470Z,68.6
2018-03-14T22:31:27.228Z,65.5
2018-03-14T22:41:27.333Z,58.7
2018-03-14T22:51:28.287Z,62.6
2018-03-14T23:01:28.033Z,57.5
2018-03-14T23:11:28.416Z,66.4
2018-03-14T23:21:28.191Z,68.9
2018-03-14T23:31:27.144Z,73.9
2018-03-14T23:41:28.270Z,65.9
2018-03-14T23:51:27.196Z,74.5
